createdAt,value
2022-08-09T00:01:52.671Z,103031.81
2022-08-09T00:04:34.387Z,103037.28
2022-08-09T00:07:07.691Z,103036.47
2022-08-09T00:09:37.761Z,103038.38
2022-08-09T00:12:05.382Z,103042.81
2022-08-09T00:14:38.326Z,103038.47
2022-08-09T00:17:05.876Z,103040.31
2022-08-09T00:19:34.042Z,103041.09
2022-08-09T00:22:03.658Z,103040.31
2022-08-09T00:24:32.242Z,103046.50
2022-08-09T00:27:00.976Z,103037.81
2022-08-09T00:29:39.287Z,103043.09
2022-08-09T00:32:27.016Z,103040.56
2022-08-09T00:35:03.961Z,103036.25
2022-08-09T00:37:32.469Z,103033.69
2022-08-09T00:40:08.965Z,103032.00
2022-08-09T00:44:11.856Z,103030.41
2022-08-09T00:45:27.363Z,103022.72
2022-08-09T00:47:55.451Z,103026.25
2022-08-09T00:50:23.201Z,103026.25
2022-08-09T00:52:50.449Z,103017.53
2022-08-09T00:56:03.000Z,103014.91
2022-08-09T00:58:05.967Z,103018.31
2022-08-09T01:00:39.746Z,103005.16
2022-08-09T01:03:10.181Z,103014.53
2022-08-09T01:06:03.761Z,103008.38
2022-08-09T01:09:15.092Z,103002.28
2022-08-09T01:12:23.833Z,102997.03
2022-08-09T01:15:05.888Z,102997.84
2022-08-09T01:17:57.606Z,102995.25
2022-08-09T01:20:47.213Z,102994.44
2022-08-09T01:24:01.780Z,102987.25
2022-08-09T01:26:54.892Z,102975.88
2022-08-09T01:29:41.332Z,102989.66
2022-08-09T01:32:30.681Z,102993.16
2022-08-09T01:35:18.279Z,102994.13
2022-08-09T01:38:09.404Z,102994.19
2022-08-09T01:40:41.458Z,102993.47
2022-08-09T01:43:09.890Z,103000.41
2022-08-09T01:45:44.799Z,102991.69
2022-08-09T01:48:17.805Z,102994.31
2022-08-09T01:50:55.293Z,102992.50
2022-08-09T01:53:28.802Z,102996.72
2022-08-09T01:55:57.491Z,103002.78
2022-08-09T01:58:28.047Z,102999.31
2022-08-09T02:00:57.517Z,102994.91
2022-08-09T02:03:25.851Z,102994.84
2022-08-09T02:06:03.548Z,102989.50
2022-08-09T02:08:57.971Z,102991.97
2022-08-09T02:11:42.507Z,102995.34
2022-08-09T02:14:15.058Z,102989.91
2022-08-09T02:17:15.253Z,102992.38
2022-08-09T02:19:43.342Z,102989.63
2022-08-09T02:22:19.106Z,102986.88
2022-08-09T02:24:59.178Z,102989.41
2022-08-09T02:27:57.425Z,102990.19
2022-08-09T02:30:17.325Z,102995.38
2022-08-09T02:32:48.007Z,102990.88
2022-08-09T02:36:02.765Z,102998.56
2022-08-09T02:38:22.156Z,103005.41
2022-08-09T02:41:02.706Z,103006.97
2022-08-09T02:43:42.384Z,103001.59
2022-08-09T02:46:22.815Z,102999.56
2022-08-09T02:48:53.978Z,102999.47
2022-08-09T02:51:23.169Z,103003.72
2022-08-09T02:54:00.871Z,103004.50
2022-08-09T02:56:31.899Z,102993.88
2022-08-09T02:59:02.417Z,102991.19
2022-08-09T03:01:42.605Z,102979.78
2022-08-09T03:04:20.711Z,102982.22
2022-08-09T03:06:54.538Z,102982.19
2022-08-09T03:09:22.151Z,102988.34
2022-08-09T03:12:08.507Z,102990.03
2022-08-09T03:14:37.339Z,102990.88
2022-08-09T03:17:05.674Z,102993.47
2022-08-09T03:19:52.660Z,102993.44
2022-08-09T03:22:30.221Z,102990.75
2022-08-09T03:25:06.579Z,102996.78
2022-08-09T03:27:50.954Z,103008.06
2022-08-09T03:30:29.847Z,103000.97
2022-08-09T03:33:17.502Z,102990.47
2022-08-09T03:36:13.447Z,102996.50
2022-08-09T03:38:42.176Z,102999.13
2022-08-09T03:41:15.236Z,103001.75
2022-08-09T03:43:43.072Z,102991.44
2022-08-09T03:46:30.310Z,102995.78
2022-08-09T03:49:04.285Z,102994.19
2022-08-09T03:51:57.486Z,102992.56
2022-08-09T03:54:29.158Z,102983.06
2022-08-09T03:56:58.359Z,102979.63
2022-08-09T03:59:42.696Z,102990.13
2022-08-09T04:02:14.357Z,102973.53
2022-08-09T04:04:45.626Z,102977.97
2022-08-09T04:07:14.374Z,102980.59
2022-08-09T04:09:50.042Z,102982.38
2022-08-09T04:12:30.048Z,102990.25
2022-08-09T04:15:01.555Z,102994.63
2022-08-09T04:17:29.990Z,102991.16
2022-08-09T04:20:02.552Z,102992.00
2022-08-09T04:22:30.090Z,102991.06
2022-08-09T04:24:58.877Z,102986.66
2022-08-09T04:27:26.009Z,102996.22
2022-08-09T04:29:56.078Z,102983.94
2022-08-09T04:32:31.446Z,102980.38
2022-08-09T04:35:01.201Z,102981.19
2022-08-09T04:37:42.043Z,102972.41
2022-08-09T04:40:19.200Z,102978.56
2022-08-09T04:42:48.511Z,102988.16
2022-08-09T04:45:20.534Z,102979.38
2022-08-09T04:48:00.165Z,102972.47
2022-08-09T04:50:31.702Z,102988.16
2022-08-09T04:53:00.899Z,102986.53
2022-08-09T04:55:27.891Z,102990.00
2022-08-09T04:58:09.674Z,102992.66
2022-08-09T05:00:37.311Z,102991.84
2022-08-09T05:03:30.458Z,102994.50
2022-08-09T05:06:06.508Z,102991.13
2022-08-09T05:08:37.562Z,102999.03
2022-08-09T05:11:06.850Z,103007.88
2022-08-09T05:13:38.926Z,103008.72
2022-08-09T05:16:08.228Z,103002.59
2022-08-09T05:18:58.110Z,102994.69
2022-08-09T05:21:30.087Z,102993.81
2022-08-09T05:24:04.839Z,103004.31
2022-08-09T05:26:45.375Z,103014.78
2022-08-09T05:29:21.148Z,103020.81
2022-08-09T05:31:58.875Z,103022.53
2022-08-09T05:34:32.842Z,103021.56
2022-08-09T05:37:05.929Z,103019.72
2022-08-09T05:39:43.927Z,103021.41
2022-08-09T05:42:17.566Z,103021.22
2022-08-09T05:44:50.653Z,103025.56
2022-08-09T05:47:19.100Z,103024.59
2022-08-09T05:50:30.447Z,103019.28
2022-08-09T05:52:33.144Z,103014.81
2022-08-09T05:55:03.168Z,103025.19
2022-08-09T05:57:55.208Z,103033.03
2022-08-09T06:00:22.499Z,103025.91
2022-08-09T06:02:49.423Z,103038.09
2022-08-09T06:05:30.902Z,103041.47
2022-08-09T06:08:09.215Z,103036.16
2022-08-09T06:10:38.396Z,103044.91
2022-08-09T06:13:12.273Z,103045.63
2022-08-09T06:15:47.755Z,103048.91
2022-08-09T06:18:23.744Z,103047.91
2022-08-09T06:20:54.631Z,103040.06
2022-08-09T06:23:57.874Z,103043.38
2022-08-09T06:26:14.421Z,103054.47
2022-08-09T06:28:43.311Z,103053.41
2022-08-09T06:31:11.168Z,103055.88
2022-08-09T06:33:40.455Z,103054.88
2022-08-09T06:36:11.869Z,103054.78
2022-08-09T06:38:47.202Z,103061.66
2022-08-09T06:41:18.811Z,103058.09
2022-08-09T06:43:47.146Z,103062.16
2022-08-09T06:46:40.402Z,103060.13
2022-08-09T06:49:02.316Z,103061.69
2022-08-09T06:51:29.255Z,103065.03
2022-08-09T06:54:00.994Z,103063.09
2022-08-09T06:56:30.841Z,103068.34
2022-08-09T07:00:52.583Z,103065.69
2022-08-09T07:01:58.146Z,103067.88
2022-08-09T07:04:30.837Z,103063.78
2022-08-09T07:07:00.432Z,103078.22
2022-08-09T07:09:56.468Z,103069.09
2022-08-09T07:12:18.031Z,103078.22
2022-08-09T07:14:51.355Z,103071.38
2022-08-09T07:17:19.969Z,103065.59
2022-08-09T07:19:48.243Z,103070.31
2022-08-09T07:22:27.375Z,103067.00
2022-08-09T07:25:05.053Z,103073.41
2022-08-09T07:27:34.515Z,103077.19
2022-08-09T07:30:13.588Z,103082.66
2022-08-09T07:32:41.878Z,103083.59
2022-08-09T07:35:12.293Z,103080.59
2022-08-09T07:37:45.545Z,103083.63
2022-08-09T07:40:17.054Z,103081.91
2022-08-09T07:42:50.143Z,103091.00
2022-08-09T07:45:23.019Z,103081.25
2022-08-09T07:48:05.120Z,103083.78
2022-08-09T07:50:34.578Z,103079.84
2022-08-09T07:53:03.048Z,103077.38
2022-08-09T07:55:41.391Z,103074.09
2022-08-09T07:58:21.666Z,103078.13
2022-08-09T08:00:58.915Z,103072.97
2022-08-09T08:03:36.917Z,103069.09
2022-08-09T08:06:04.898Z,103074.97
2022-08-09T08:09:01.360Z,103062.81
2022-08-09T08:12:11.235Z,103063.41
2022-08-09T08:14:06.833Z,103069.81
2022-08-09T08:16:35.779Z,103075.34
2022-08-09T08:19:06.515Z,103068.91
2022-08-09T08:21:34.061Z,103076.00
2022-08-09T08:24:11.749Z,103072.13
2022-08-09T08:26:54.914Z,103074.84
2022-08-09T08:29:27.759Z,103059.91
2022-08-09T08:32:03.234Z,103066.56
2022-08-09T08:34:34.440Z,103060.50
2022-08-09T08:37:02.640Z,103064.16
2022-08-09T08:39:32.908Z,103069.63
2022-08-09T08:42:08.550Z,103060.56
2022-08-09T08:44:37.251Z,103060.28
2022-08-09T08:47:13.189Z,103055.72
2022-08-09T08:49:47.703Z,103050.44
2022-08-09T08:52:58.071Z,103051.25
2022-08-09T08:55:08.032Z,103048.97
2022-08-09T08:57:35.928Z,103048.63
2022-08-09T09:00:12.903Z,103045.53
2022-08-09T09:02:53.388Z,103047.25
2022-08-09T09:05:57.345Z,103050.13
2022-08-09T09:08:30.893Z,103050.63
2022-08-09T09:11:03.242Z,103041.88
2022-08-09T09:13:42.214Z,103050.03
2022-08-09T09:16:29.936Z,103055.00
2022-08-09T09:21:59.562Z,103044.69
2022-08-09T09:24:29.430Z,103051.44
2022-08-09T09:26:58.418Z,103040.13
2022-08-09T09:29:46.050Z,103033.06
2022-08-09T09:32:32.397Z,103043.47
2022-08-09T09:35:10.909Z,103040.53
2022-08-09T09:37:45.757Z,103047.41
2022-08-09T09:40:13.139Z,103046.38
2022-08-09T09:42:46.000Z,103041.69
2022-08-09T09:45:14.402Z,103048.94
2022-08-09T09:47:56.574Z,103046.09
2022-08-09T09:50:49.584Z,103040.09
2022-08-09T09:53:44.187Z,103036.63
2022-08-09T09:56:20.076Z,103031.09
2022-08-09T09:58:58.331Z,103034.06
2022-08-09T10:01:36.897Z,103024.75
2022-08-09T10:04:30.352Z,103022.88
2022-08-09T10:06:58.105Z,103020.03
2022-08-09T10:09:25.722Z,103022.78
2022-08-09T10:12:11.780Z,103013.84
2022-08-09T10:14:47.815Z,103012.75
2022-08-09T10:17:39.488Z,103015.59
2022-08-09T10:20:32.566Z,103013.75
2022-08-09T10:23:21.997Z,103011.06
2022-08-09T10:26:06.459Z,103013.00
2022-08-09T10:28:37.322Z,103012.34
2022-08-09T10:34:09.005Z,103013.13
2022-08-09T10:36:42.201Z,103011.31
2022-08-09T10:39:15.413Z,103010.06
2022-08-09T10:41:48.066Z,103008.41
2022-08-09T10:44:25.621Z,103006.25
2022-08-09T10:47:28.145Z,103016.59
2022-08-09T10:50:06.074Z,103010.63
2022-08-09T10:52:36.362Z,103002.34
2022-08-09T10:55:25.285Z,102993.22
2022-08-09T10:57:55.992Z,102992.41
2022-08-09T11:00:41.584Z,103003.19
2022-08-09T11:03:49.932Z,102998.09
2022-08-09T11:06:19.940Z,103001.06
2022-08-09T11:08:53.080Z,102992.94
2022-08-09T11:11:21.476Z,103005.22
2022-08-09T11:14:27.964Z,102997.75
2022-08-09T11:16:56.338Z,102999.38
2022-08-09T11:20:07.999Z,102997.19
2022-08-09T11:22:44.964Z,102988.22
2022-08-09T11:25:26.149Z,102995.59
2022-08-09T11:28:38.751Z,102989.53
2022-08-09T11:31:43.533Z,102986.56
2022-08-09T11:34:35.208Z,102984.25
2022-08-09T11:37:07.225Z,102984.16
2022-08-09T11:40:01.598Z,102985.28
2022-08-09T11:42:48.360Z,102981.34
2022-08-09T11:45:43.229Z,102982.19
2022-08-09T11:48:19.343Z,102985.19
2022-08-09T11:52:48.669Z,102985.13
2022-08-09T11:53:58.693Z,102972.81
2022-08-09T11:56:42.760Z,102973.66
2022-08-09T11:59:30.201Z,102977.25
2022-08-09T12:02:18.187Z,102964.75
2022-08-09T12:04:58.781Z,102971.34
2022-08-09T12:07:41.675Z,102968.44
2022-08-09T12:10:31.887Z,102966.00
2022-08-09T12:12:57.956Z,102966.03
2022-08-09T12:15:48.819Z,102967.41
2022-08-09T12:18:30.098Z,102963.03
2022-08-09T12:21:02.799Z,102960.31
2022-08-09T12:23:58.678Z,102964.72
2022-08-09T12:26:19.859Z,102972.16
2022-08-09T12:29:11.901Z,102958.78
2022-08-09T12:31:58.224Z,102962.00
2022-08-09T12:34:40.014Z,102959.47
2022-08-09T12:37:21.962Z,102960.59
2022-08-09T12:40:11.725Z,102953.09
2022-08-09T12:42:50.593Z,102949.34
2022-08-09T12:45:34.005Z,102955.25
2022-08-09T12:48:20.061Z,102952.00
2022-08-09T12:50:58.493Z,102943.97
2022-08-09T12:53:37.592Z,102931.59
2022-08-09T12:56:42.866Z,102944.00
2022-08-09T12:59:20.612Z,102942.06
2022-08-09T13:02:00.013Z,102941.31
2022-08-09T13:04:36.147Z,102936.69
2022-08-09T13:07:13.808Z,102931.72
2022-08-09T13:09:52.843Z,102935.47
2022-08-09T13:12:28.359Z,102927.88
2022-08-09T13:15:08.165Z,102921.03
2022-08-09T13:18:03.480Z,102921.59
2022-08-09T13:20:37.740Z,102910.50
2022-08-09T13:24:15.585Z,102917.72
2022-08-09T13:26:05.687Z,102917.34
2022-08-09T13:28:39.543Z,102915.31
2022-08-09T13:32:14.185Z,102916.56
2022-08-09T13:33:59.055Z,102913.41
2022-08-09T13:36:41.540Z,102908.69
2022-08-09T13:41:20.919Z,102903.88
2022-08-09T13:42:15.667Z,102897.72
2022-08-09T13:44:43.905Z,102909.44
2022-08-09T13:47:29.013Z,102898.28
2022-08-09T13:50:12.780Z,102905.59
2022-08-09T13:52:55.937Z,102904.66
2022-08-09T13:55:23.245Z,102901.22
2022-08-09T13:57:56.224Z,102910.13
2022-08-09T14:00:28.997Z,102893.63
2022-08-09T14:03:03.485Z,102894.72
2022-08-09T14:05:59.816Z,102895.44
2022-08-09T14:08:30.495Z,102895.59
2022-08-09T14:10:59.419Z,102901.84
2022-08-09T14:14:15.587Z,102892.22
2022-08-09T14:16:18.266Z,102881.00
2022-08-09T14:18:49.582Z,102881.38
2022-08-09T14:21:22.368Z,102892.00
2022-08-09T14:23:53.925Z,102884.00
2022-08-09T14:26:21.561Z,102889.69
2022-08-09T14:28:48.510Z,102891.69
2022-08-09T14:31:15.405Z,102892.41
2022-08-09T14:33:42.496Z,102893.03
2022-08-09T14:36:20.905Z,102895.25
2022-08-09T14:38:52.552Z,102895.59
2022-08-09T14:41:34.771Z,102888.53
2022-08-09T14:44:07.150Z,102891.50
2022-08-09T14:46:54.312Z,102891.25
2022-08-09T14:49:25.209Z,102891.59
2022-08-09T14:51:53.281Z,102892.34
2022-08-09T14:54:28.363Z,102897.00
2022-08-09T14:56:58.752Z,102888.59
2022-08-09T14:59:27.448Z,102884.13
2022-08-09T15:01:56.212Z,102894.28
2022-08-09T15:04:23.954Z,102892.47
2022-08-09T15:06:52.413Z,102885.69
2022-08-09T15:10:04.004Z,102885.09
2022-08-09T15:12:07.803Z,102885.91
2022-08-09T15:14:38.662Z,102876.06
2022-08-09T15:17:09.900Z,102884.69
2022-08-09T15:19:54.433Z,102872.44
2022-08-09T15:22:26.863Z,102873.00
2022-08-09T15:24:54.530Z,102864.75
2022-08-09T15:27:21.948Z,102868.66
2022-08-09T15:30:58.279Z,102862.41
2022-08-09T15:32:36.099Z,102857.41
2022-08-09T15:35:18.060Z,102851.66
2022-08-09T15:37:56.758Z,102859.56
2022-08-09T15:40:34.305Z,102856.03
2022-08-09T15:43:01.855Z,102852.38
2022-08-09T15:45:30.078Z,102850.13
2022-08-09T15:48:05.283Z,102837.03
2022-08-09T15:50:43.746Z,102834.75
2022-08-09T15:54:02.037Z,102832.19
2022-08-09T15:56:21.520Z,102833.22
2022-08-09T15:58:46.459Z,102817.81
2022-08-09T16:01:13.622Z,102827.84
2022-08-09T16:03:41.662Z,102829.25
2022-08-09T16:06:16.077Z,102821.09
2022-08-09T16:09:00.908Z,102825.13
2022-08-09T16:11:30.770Z,102813.34
2022-08-09T16:14:02.810Z,102818.81
2022-08-09T16:16:34.547Z,102818.38
2022-08-09T16:19:04.872Z,102825.44
2022-08-09T16:21:35.033Z,102819.63
2022-08-09T16:24:04.852Z,102819.22
2022-08-09T16:26:34.965Z,102820.81
2022-08-09T16:29:10.545Z,102816.81
2022-08-09T16:32:19.218Z,102817.75
2022-08-09T16:34:25.059Z,102818.88
2022-08-09T16:36:52.301Z,102812.03
2022-08-09T16:39:19.733Z,102802.47
2022-08-09T16:42:04.124Z,102807.66
2022-08-09T16:44:32.373Z,102809.44
2022-08-09T16:47:03.784Z,102815.34
2022-08-09T16:50:32.196Z,102816.16
2022-08-09T16:52:19.175Z,102811.59
2022-08-09T16:54:46.271Z,102809.81
2022-08-09T16:57:16.404Z,102815.94
2022-08-09T16:59:43.825Z,102812.31
2022-08-09T17:02:17.800Z,102814.09
2022-08-09T17:04:50.501Z,102815.56
2022-08-09T17:08:44.476Z,102809.22
2022-08-09T17:10:09.219Z,102828.44
2022-08-09T17:12:38.103Z,102805.97
2022-08-09T17:15:17.977Z,102820.25
2022-08-09T17:17:52.578Z,102820.22
2022-08-09T17:20:32.855Z,102810.63
2022-08-09T17:23:04.840Z,102816.13
2022-08-09T17:25:32.359Z,102814.09
2022-08-09T17:28:05.756Z,102803.31
2022-08-09T17:30:34.252Z,102816.53
2022-08-09T17:33:22.801Z,102819.78
2022-08-09T17:35:50.204Z,102822.09
2022-08-09T17:38:30.519Z,102812.59
2022-08-09T17:41:00.784Z,102815.94
2022-08-09T17:43:34.588Z,102823.94
2022-08-09T17:46:08.704Z,102823.91
2022-08-09T17:48:51.799Z,102821.78
2022-08-09T17:51:20.246Z,102824.78
2022-08-09T17:53:54.637Z,102837.06
2022-08-09T17:56:29.299Z,102833.81
2022-08-09T17:59:09.371Z,102818.63
2022-08-09T18:02:07.668Z,102826.97
2022-08-09T18:04:28.637Z,102829.16
2022-08-09T18:06:56.250Z,102824.19
2022-08-09T18:09:40.135Z,102826.13
2022-08-09T18:12:20.006Z,102827.97
2022-08-09T18:14:54.889Z,102831.72
2022-08-09T18:18:02.806Z,102822.59
2022-08-09T18:20:55.134Z,102823.78
2022-08-09T18:23:05.534Z,102828.38
2022-08-09T18:25:50.604Z,102826.03
2022-08-09T18:30:41.930Z,102819.06
2022-08-09T18:31:08.695Z,102825.72
2022-08-09T18:33:36.269Z,102827.47
2022-08-09T18:36:03.253Z,102830.13
2022-08-09T18:38:30.715Z,102824.72
2022-08-09T18:40:58.637Z,102830.00
2022-08-09T18:43:25.472Z,102827.16
2022-08-09T18:46:49.262Z,102834.66
2022-08-09T18:48:42.478Z,102831.34
2022-08-09T18:51:09.808Z,102831.03
2022-08-09T18:53:56.385Z,102829.56
2022-08-09T18:56:28.221Z,102829.88
2022-08-09T18:58:57.220Z,102835.97
2022-08-09T19:01:24.825Z,102841.00
2022-08-09T19:04:01.343Z,102836.31
2022-08-09T19:06:38.747Z,102833.22
2022-08-09T19:09:07.490Z,102834.09
2022-08-09T19:11:37.706Z,102834.41
2022-08-09T19:14:06.885Z,102839.06
2022-08-09T19:16:36.071Z,102841.56
2022-08-09T19:19:23.482Z,102833.22
2022-08-09T19:21:56.653Z,102844.38
2022-08-09T19:25:07.271Z,102851.06
2022-08-09T19:27:18.259Z,102843.78
2022-08-09T19:30:24.715Z,102852.56
2022-08-09T19:32:33.095Z,102852.66
2022-08-09T19:35:00.949Z,102859.06
2022-08-09T19:37:29.382Z,102855.75
2022-08-09T19:40:09.383Z,102863.91
2022-08-09T19:42:36.552Z,102857.72
2022-08-09T19:45:06.595Z,102860.28
2022-08-09T19:47:38.148Z,102861.94
2022-08-09T19:50:48.445Z,102864.56
2022-08-09T19:52:52.736Z,102866.38
2022-08-09T19:55:25.658Z,102872.56
2022-08-09T19:57:57.933Z,102871.84
2022-08-09T20:00:25.034Z,102873.56
2022-08-09T20:04:09.573Z,102872.59
2022-08-09T20:05:46.299Z,102867.59
2022-08-09T20:08:16.224Z,102871.00
2022-08-09T20:11:02.529Z,102866.91
2022-08-09T20:13:36.781Z,102872.09
2022-08-09T20:16:35.048Z,102871.44
2022-08-09T20:19:43.131Z,102881.91
2022-08-09T20:21:56.332Z,102884.44
2022-08-09T20:24:29.598Z,102890.41
2022-08-09T20:27:01.263Z,102895.53
2022-08-09T20:29:32.607Z,102895.22
2022-08-09T20:32:30.351Z,102891.28
2022-08-09T20:34:54.657Z,102890.16
2022-08-09T20:37:22.589Z,102897.84
2022-08-09T20:40:15.999Z,102891.59
2022-08-09T20:42:37.938Z,102898.44
2022-08-09T20:46:01.406Z,102897.13
2022-08-09T20:47:55.067Z,102898.47
2022-08-09T20:50:47.420Z,102890.00
2022-08-09T20:53:21.100Z,102887.13
2022-08-09T20:56:02.057Z,102891.19
2022-08-09T20:58:32.779Z,102890.94
2022-08-09T21:01:32.226Z,102889.56
2022-08-09T21:05:49.101Z,102884.78
2022-08-09T21:06:42.658Z,102886.19
2022-08-09T21:09:13.614Z,102889.28
2022-08-09T21:14:31.118Z,102884.72
2022-08-09T21:16:59.405Z,102877.22
2022-08-09T21:20:19.264Z,102886.38
2022-08-09T21:22:36.099Z,102884.94
2022-08-09T21:25:20.898Z,102880.94
2022-08-09T21:27:52.354Z,102883.88
2022-08-09T21:30:22.290Z,102878.06
2022-08-09T21:32:50.697Z,102874.94
2022-08-09T21:35:18.507Z,102874.22
2022-08-09T21:37:59.131Z,102874.50
2022-08-09T21:40:30.302Z,102870.44
2022-08-09T21:42:59.682Z,102871.53
2022-08-09T21:45:28.144Z,102875.31
2022-08-09T21:47:55.634Z,102867.63
2022-08-09T21:50:33.908Z,102857.47
2022-08-09T21:53:19.993Z,102863.69
2022-08-09T21:55:54.239Z,102866.66
2022-08-09T21:58:21.239Z,102873.66
2022-08-09T22:00:58.617Z,102866.38
2022-08-09T22:03:26.271Z,102865.38
2022-08-09T22:05:54.978Z,102860.25
2022-08-09T22:08:25.765Z,102859.69
2022-08-09T22:11:00.196Z,102859.22
2022-08-09T22:13:42.341Z,102867.31
2022-08-09T22:16:12.163Z,102865.84
2022-08-09T22:18:53.101Z,102871.44
2022-08-09T22:21:21.865Z,102868.25
2022-08-09T22:23:59.308Z,102864.91
2022-08-09T22:26:35.249Z,102862.47
2022-08-09T22:29:09.499Z,102857.34
2022-08-09T22:31:44.189Z,102840.09
2022-08-09T22:34:14.462Z,102856.00
2022-08-09T22:36:46.156Z,102857.81
2022-08-09T22:39:46.957Z,102846.53
2022-08-09T22:42:03.894Z,102853.66
2022-08-09T22:44:33.937Z,102851.22
2022-08-09T22:48:13.131Z,102856.75
2022-08-09T22:49:52.079Z,102852.63
2022-08-09T22:52:19.650Z,102857.19
2022-08-09T22:54:47.937Z,102852.94
2022-08-09T22:57:14.979Z,102844.09
2022-08-09T22:59:56.071Z,102845.88
2022-08-09T23:02:25.813Z,102846.97
2022-08-09T23:04:56.929Z,102848.94
2022-08-09T23:08:22.408Z,102848.31
2022-08-09T23:10:32.070Z,102841.53
2022-08-09T23:12:59.927Z,102843.31
2022-08-09T23:15:28.219Z,102832.75
2022-08-09T23:17:56.028Z,102838.94
2022-08-09T23:20:25.325Z,102838.34
2022-08-09T23:22:52.423Z,102835.13
2022-08-09T23:25:19.367Z,102834.28
2022-08-09T23:28:14.353Z,102831.75
2022-08-09T23:30:33.123Z,102830.09
2022-08-09T23:33:00.081Z,102833.84
2022-08-09T23:35:27.024Z,102832.16
2022-08-09T23:37:53.946Z,102832.13
2022-08-09T23:40:20.924Z,102829.50
2022-08-09T23:42:47.847Z,102830.41
2022-08-09T23:45:36.513Z,102831.19
2022-08-09T23:48:05.414Z,102827.63
2022-08-09T23:50:35.726Z,102826.81
2022-08-09T23:53:02.625Z,102821.56
2022-08-09T23:55:30.536Z,102829.44
2022-08-09T23:58:10.581Z,102824.13
